Time;durP1;ratioP1;P1;durP2;ratioP2;P2;SDS_P1;SDS_P2;PMS_P1;PMS_P2;Temp;Humidity;BMP_temperature;BMP_pressure;BME280_temperature;BME280_humidity;BME280_pressure;Samples;Min_cycle;Max_cycle;Signal;HPM_P1;HPM_P2
2021/11/03 00:01:46;;;;;;;25.40;18.47;;;;;;;8.65;79.38;99770.47;5100221;28;20176;-63
2021/11/03 00:04:12;;;;;;;14.93;13.40;;;;;;;12.82;79.85;99758.19;5100530;28;20172;-64
2021/11/03 00:06:42;;;;;;;21.03;14.30;;;;;;;14.66;66.85;99747.72;5098851;28;20446;-68
2021/11/03 00:09:08;;;;;;;19.23;16.60;;;;;;;11.20;68.50;99761.78;5100111;28;20683;-62
2021/11/03 00:11:35;;;;;;;21.17;17.83;;;;;;;10.35;72.10;99765.00;5082513;28;20496;-61
2021/11/03 00:14:00;;;;;;;21.33;17.27;;;;;;;10.01;73.29;99766.84;5100080;28;20214;-62
2021/11/03 00:16:25;;;;;;;19.80;16.60;;;;;;;9.35;75.97;99768.75;5099935;28;20385;-61
2021/11/03 00:18:50;;;;;;;18.73;15.60;;;;;;;9.64;74.76;99757.41;5100154;28;20235;-62
2021/11/03 00:21:16;;;;;;;20.40;16.40;;;;;;;9.58;74.78;99765.25;5099535;28;20504;-64
2021/11/03 00:23:41;;;;;;;19.03;17.07;;;;;;;9.58;75.05;99763.50;5099671;28;20245;-61
2021/11/03 00:26:06;;;;;;;19.57;17.57;;;;;;;9.59;74.65;99756.56;5100276;28;20202;-62
2021/11/03 00:28:32;;;;;;;20.23;18.00;;;;;;;9.76;74.26;99753.94;5099132;28;20251;-62
2021/11/03 00:30:58;;;;;;;19.77;17.77;;;;;;;9.75;74.22;99760.00;5099055;28;20179;-62
2021/11/03 00:33:26;;;;;;;21.90;18.10;;;;;;;9.36;75.25;99756.59;5100196;28;20221;-61
2021/11/03 00:35:51;;;;;;;19.80;17.73;;;;;;;9.52;75.09;99760.06;5099593;28;20508;-62
2021/11/03 00:38:17;;;;;;;23.60;18.93;;;;;;;9.84;74.48;99757.38;5098854;28;20416;-61
2021/11/03 00:40:42;;;;;;;20.07;17.93;;;;;;;9.63;74.99;99750.47;5098964;28;20220;-61
2021/11/03 00:43:08;;;;;;;20.27;17.73;;;;;;;9.72;74.83;99757.41;5099539;28;20180;-62
2021/11/03 00:45:33;;;;;;;21.33;17.10;;;;;;;9.78;74.65;99757.38;5099475;28;20204;-62
2021/11/03 00:47:59;;;;;;;20.80;18.13;;;;;;;9.63;75.17;99754.81;5099800;28;20168;-62
2021/11/03 00:50:24;;;;;;;26.17;17.20;;;;;;;9.63;75.13;99752.22;5094457;28;20258;-62
2021/11/03 00:52:50;;;;;;;22.50;17.73;;;;;;;9.65;74.52;99753.97;5078638;28;20255;-63
2021/11/03 00:55:17;;;;;;;23.87;18.30;;;;;;;9.42;75.49;99752.25;5079439;28;20161;-62
2021/11/03 00:57:42;;;;;;;21.63;18.20;;;;;;;9.29;75.72;99760.94;5061426;28;20386;-61
2021/11/03 01:00:09;;;;;;;22.60;16.97;;;;;;;9.61;74.30;99752.22;5078619;28;20397;-61
2021/11/03 01:02:36;;;;;;;21.10;18.47;;;;;;;9.80;73.84;99747.00;5079151;28;20184;-61
2021/11/03 01:05:02;;;;;;;20.50;17.60;;;;;;;9.71;73.96;99750.47;5061097;28;20542;-61
2021/11/03 01:07:28;;;;;;;20.03;17.93;;;;;;;9.30;76.33;99749.69;5078554;28;20631;-61
2021/11/03 01:09:54;;;;;;;20.93;18.63;;;;;;;9.48;74.69;99746.16;5078904;28;20468;-62
2021/11/03 01:12:19;;;;;;;22.63;17.60;;;;;;;9.36;76.63;99748.81;5078285;28;20226;-62
2021/11/03 01:14:44;;;;;;;20.73;17.90;;;;;;;9.53;75.53;99749.63;5078412;28;20806;-62
2021/11/03 01:17:10;;;;;;;22.60;16.47;;;;;;;9.37;75.26;99751.41;5078452;28;20173;-62
2021/11/03 01:19:35;;;;;;;19.73;16.50;;;;;;;9.23;76.26;99742.75;5078301;28;20439;-62
2021/11/03 01:22:01;;;;;;;19.53;17.47;;;;;;;9.39;75.00;99751.38;5078516;28;20243;-61
2021/11/03 01:24:27;;;;;;;20.63;16.60;;;;;;;9.51;75.04;99743.59;5078551;28;20550;-61
2021/11/03 01:26:52;;;;;;;18.30;16.30;;;;;;;9.56;74.28;99735.75;5078295;28;20219;-62
2021/11/03 01:29:17;;;;;;;19.73;17.20;;;;;;;9.47;74.75;99743.59;5078206;28;20169;-62
2021/11/03 01:31:43;;;;;;;21.23;17.73;;;;;;;9.66;74.42;99740.09;5078449;28;20165;-62
2021/11/03 01:34:08;;;;;;;18.90;16.90;;;;;;;9.14;76.48;99741.03;5078109;28;20200;-61
2021/11/03 01:36:33;;;;;;;20.53;16.00;;;;;;;9.41;75.22;99739.25;5078146;28;20203;-61
2021/11/03 01:38:59;;;;;;;18.00;15.63;;;;;;;9.51;74.89;99745.31;5078646;28;20606;-61
2021/11/03 01:41:24;;;;;;;17.50;15.60;;;;;;;9.41;75.40;99740.13;5077966;28;20217;-62
2021/11/03 01:44:04;;;;;;;17.03;15.23;;;;;;;8.99;77.43;99739.28;5078163;28;20215;-61
2021/11/03 01:46:55;;;;;;;17.40;15.53;;;;;;;9.53;75.85;99733.19;5078057;28;20218;-62
2021/11/03 01:49:23;;;;;;;21.27;16.53;;;;;;;9.52;75.44;99723.63;5078156;28;20830;-61
2021/11/03 01:51:54;;;;;;;18.70;15.23;;;;;;;9.61;75.18;99721.00;5077973;28;20525;-62
2021/11/03 01:54:23;;;;;;;18.80;16.27;;;;;;;9.70;74.33;99725.31;5060793;28;20390;-62
2021/11/03 01:56:48;;;;;;;18.33;15.83;;;;;;;9.57;75.17;99735.75;5060646;28;20407;-62
2021/11/03 01:59:21;;;;;;;18.50;16.40;;;;;;;9.55;74.79;99731.41;5077905;28;20626;-62
2021/11/03 02:01:47;;;;;;;19.13;17.13;;;;;;;9.36;76.40;99725.38;5061640;28;20165;-61
2021/11/03 02:04:13;;;;;;;17.77;15.90;;;;;;;9.52;76.54;99732.28;5061796;28;20470;-62
2021/11/03 02:06:38;;;;;;;17.30;14.53;;;;;;;9.75;75.34;99736.56;5043878;28;20561;-62
2021/11/03 02:09:04;;;;;;;18.50;15.33;;;;;;;9.10;76.49;99734.09;5060936;28;20175;-61
2021/11/03 02:11:29;;;;;;;17.17;15.37;;;;;;;9.08;78.13;99739.28;5077785;28;20229;-62
2021/11/03 02:13:56;;;;;;;19.33;16.20;;;;;;;9.36;76.15;99736.69;5077903;28;20272;-62
2021/11/03 02:16:22;;;;;;;19.13;15.50;;;;;;;9.04;77.40;99740.16;5060943;28;20164;-62
2021/11/03 02:18:48;;;;;;;21.87;15.43;;;;;;;9.27;76.86;99744.50;5078028;28;20744;-62
2021/11/03 02:21:18;;;;;;;17.83;16.03;;;;;;;9.24;76.28;99736.66;5060319;28;20165;-61
2021/11/03 02:24:04;;;;;;;19.00;15.77;;;;;;;9.07;77.22;99742.75;5060660;28;20408;-63
2021/11/03 02:26:32;;;;;;;19.27;16.50;;;;;;;9.16;76.75;99739.31;5060239;28;20397;-62
2021/11/03 02:28:58;;;;;;;20.93;16.30;;;;;;;8.85;77.04;99741.91;5060440;28;20485;-62
2021/11/03 02:31:33;;;;;;;22.30;16.03;;;;;;;9.31;75.86;99742.72;5081377;28;20850;-62
2021/11/03 02:34:00;;;;;;;18.57;16.37;;;;;;;9.40;75.77;99732.31;5081519;28;20176;-60
2021/11/03 02:36:25;;;;;;;17.93;16.03;;;;;;;9.28;75.32;99733.19;5081240;28;20404;-60
2021/11/03 02:38:50;;;;;;;21.53;16.50;;;;;;;9.46;74.53;99734.03;5081218;28;20390;-61
2021/11/03 02:41:19;;;;;;;20.70;16.77;;;;;;;9.42;75.32;99734.06;5081405;28;20180;-61
2021/11/03 02:43:50;;;;;;;17.33;15.37;;;;;;;9.70;73.58;99731.41;5063776;28;20169;-63
2021/11/03 02:46:16;;;;;;;18.23;14.53;;;;;;;9.46;74.79;99731.44;5069774;28;20465;-65
2021/11/03 02:48:41;;;;;;;16.67;14.13;;;;;;;8.97;77.00;99730.66;5087390;28;20423;-62
2021/11/03 02:51:20;;;;;;;19.60;14.00;;;;;;;9.17;75.77;99735.81;5085829;28;20459;-62
2021/11/03 02:53:52;;;;;;;15.47;13.87;;;;;;;9.63;73.79;99731.41;5082531;28;20185;-61
2021/11/03 02:56:22;;;;;;;17.50;13.60;;;;;;;9.29;74.96;99734.94;5063854;28;20413;-61
2021/11/03 02:58:47;;;;;;;17.60;14.83;;;;;;;9.44;73.77;99723.63;5082338;28;20515;-62
2021/11/03 03:01:30;;;;;;;17.10;14.60;;;;;;;9.60;73.95;99730.53;5081283;28;20711;-62
2021/11/03 03:03:56;;;;;;;15.40;13.40;;;;;;;9.24;74.26;99734.06;5063443;28;20468;-61
2021/11/03 03:06:24;;;;;;;15.47;13.63;;;;;;;9.31;74.94;99727.13;5080615;28;20459;-62
2021/11/03 03:08:51;;;;;;;15.20;13.60;;;;;;;9.08;75.00;99744.50;5080581;28;20489;-62
2021/11/03 03:11:16;;;;;;;14.30;12.87;;;;;;;9.22;74.97;99738.44;5080630;28;20394;-61
2021/11/03 03:13:42;;;;;;;14.50;13.00;;;;;;;9.21;74.74;99742.75;5080885;28;20431;-61
2021/11/03 03:16:08;;;;;;;14.60;12.70;;;;;;;9.34;74.65;99732.34;5080565;28;20557;-61
2021/11/03 03:18:33;;;;;;;16.07;13.63;;;;;;;9.05;74.65;99741.91;5080845;28;20258;-62
2021/11/03 03:20:58;;;;;;;14.97;13.10;;;;;;;9.06;75.11;99754.00;5080876;28;20165;-61
2021/11/03 03:23:23;;;;;;;14.20;12.70;;;;;;;9.30;74.25;99749.69;5080365;28;20177;-61
2021/11/03 03:25:50;;;;;;;14.20;12.13;;;;;;;9.17;75.41;99748.81;5080039;28;20219;-62
2021/11/03 03:28:17;;;;;;;14.20;11.87;;;;;;;8.92;75.27;99746.22;5080741;28;20180;-61
2021/11/03 03:30:43;;;;;;;13.47;12.07;;;;;;;8.80;76.93;99753.16;5079801;28;20419;-62
2021/11/03 03:33:08;;;;;;;14.77;11.77;;;;;;;8.86;76.09;99751.44;5062842;28;20382;-62
2021/11/03 03:35:33;;;;;;;13.53;12.07;;;;;;;8.65;77.33;99751.41;5080620;28;20200;-62
2021/11/03 03:37:59;;;;;;;14.33;12.20;;;;;;;8.63;77.00;99748.78;5079997;28;20451;-61
2021/11/03 03:40:24;;;;;;;13.63;12.20;;;;;;;8.84;77.06;99749.69;5079762;28;20176;-62
2021/11/03 03:42:49;;;;;;;14.30;12.80;;;;;;;8.27;78.89;99753.03;5080237;28;20271;-63
2021/11/03 03:45:15;;;;;;;12.70;11.40;;;;;;;8.41;78.25;99759.09;5079842;28;20545;-61
2021/11/03 03:47:40;;;;;;;15.80;13.40;;;;;;;8.76;77.49;99757.47;5079887;28;20181;-62
2021/11/03 03:50:06;;;;;;;13.33;11.97;;;;;;;8.45;77.26;99759.13;5080282;28;20219;-61
2021/11/03 03:52:31;;;;;;;14.57;12.80;;;;;;;8.46;77.34;99753.06;5079847;28;20272;-61
2021/11/03 03:54:57;;;;;;;14.17;12.07;;;;;;;8.50;78.16;99755.72;5080018;28;20425;-62
2021/11/03 03:57:22;;;;;;;14.67;13.17;;;;;;;7.98;78.50;99763.28;5062667;28;20180;-61
2021/11/03 03:59:47;;;;;;;14.03;12.53;;;;;;;8.43;77.83;99752.19;5079847;28;20172;-62
2021/11/03 04:02:12;;;;;;;14.50;12.23;;;;;;;8.49;77.87;99750.50;5079917;28;20184;-62
2021/11/03 04:04:38;;;;;;;15.33;12.90;;;;;;;8.32;78.61;99758.22;5079590;28;20506;-62
2021/11/03 04:07:03;;;;;;;15.23;12.60;;;;;;;7.99;79.22;99760.69;5079635;28;20204;-61
2021/11/03 04:09:29;;;;;;;14.40;12.93;;;;;;;8.17;79.22;99767.72;5079943;28;20246;-62
2021/11/03 04:11:54;;;;;;;15.27;13.00;;;;;;;8.46;79.62;99771.25;5079301;28;20252;-61
2021/11/03 04:14:19;;;;;;;14.33;12.80;;;;;;;8.11;79.94;99770.28;5079324;28;20469;-62
2021/11/03 04:16:45;;;;;;;14.63;13.03;;;;;;;7.90;80.72;99769.31;5079825;28;20169;-62
2021/11/03 04:19:10;;;;;;;15.47;13.50;;;;;;;8.32;78.93;99766.88;5079636;28;20180;-61
2021/11/03 04:21:36;;;;;;;15.47;13.77;;;;;;;8.06;79.35;99769.38;5079385;28;20180;-61
2021/11/03 04:24:01;;;;;;;15.33;13.00;;;;;;;8.38;78.02;99774.69;5079930;28;20184;-61
2021/11/03 04:26:30;;;;;;;15.60;13.10;;;;;;;8.24;79.22;99777.25;5079242;28;20293;-62
2021/11/03 04:28:55;;;;;;;14.30;12.67;;;;;;;8.27;79.66;99784.19;5079253;28;20181;-62
2021/11/03 04:31:21;;;;;;;16.10;12.73;;;;;;;8.40;78.79;99788.56;5079666;28;20393;-62
2021/11/03 04:33:50;;;;;;;14.37;12.87;;;;;;;8.63;77.89;99769.56;5079038;28;20235;-62
2021/11/03 04:36:16;;;;;;;15.27;13.67;;;;;;;8.64;76.87;99773.91;5078990;28;20176;-62
2021/11/03 04:38:41;;;;;;;14.27;12.80;;;;;;;8.67;77.40;99791.25;5079549;28;20793;-62
2021/11/03 04:41:06;;;;;;;16.50;12.23;;;;;;;8.42;77.83;99791.16;5078856;28;20189;-62
2021/11/03 04:43:32;;;;;;;14.20;12.53;;;;;;;8.58;78.95;99794.69;5061454;28;20232;-61
2021/11/03 04:45:58;;;;;;;16.07;14.23;;;;;;;8.59;76.94;99793.81;5079333;28;20280;-61
2021/11/03 04:48:23;;;;;;;14.87;13.30;;;;;;;8.38;78.60;99805.00;5078750;28;20429;-62
2021/11/03 04:50:48;;;;;;;14.33;12.83;;;;;;;7.90;79.38;99805.66;5078426;28;20508;-61
2021/11/03 04:53:14;;;;;;;14.07;12.63;;;;;;;8.15;79.66;99803.16;5078472;28;20480;-62
2021/11/03 04:55:39;;;;;;;14.57;12.90;;;;;;;8.41;nan;99798.06;5078625;28;20211;-62
2021/11/03 04:58:05;;;;;;;16.33;14.43;;;;;;;8.54;78.73;99795.56;5078725;28;20189;-62
2021/11/03 05:00:31;;;;;;;16.53;13.83;;;;;;;7.81;79.35;99808.19;5078877;28;20407;-61
2021/11/03 05:02:57;;;;;;;14.40;12.90;;;;;;;8.21;79.97;99798.00;5078662;28;20302;-61
2021/11/03 05:05:23;;;;;;;15.30;13.40;;;;;;;8.15;78.62;99800.56;5078583;28;20482;-62
2021/11/03 05:07:49;;;;;;;15.60;14.00;;;;;;;8.38;78.08;99795.47;5079014;28;20526;-62
2021/11/03 05:10:15;;;;;;;14.50;13.00;;;;;;;8.37;78.25;99798.91;5078625;28;20453;-61
2021/11/03 05:12:40;;;;;;;15.93;14.23;;;;;;;8.59;78.09;99791.22;5078363;28;20169;-63
2021/11/03 05:15:06;;;;;;;15.60;14.07;;;;;;;8.16;79.10;99799.72;5078881;28;20407;-62
2021/11/03 05:17:31;;;;;;;15.00;13.40;;;;;;;8.09;80.02;99804.00;5078461;28;20176;-61
2021/11/03 05:19:57;;;;;;;15.90;12.77;;;;;;;8.22;79.30;99801.47;5078394;28;20478;-62
2021/11/03 05:22:25;;;;;;;15.47;13.87;;;;;;;8.45;78.74;99796.38;5078664;28;20173;-63
2021/11/03 05:24:50;;;;;;;15.17;13.57;;;;;;;8.69;76.91;99794.72;5078195;28;20283;-61
2021/11/03 05:27:16;;;;;;;16.20;13.63;;;;;;;8.71;76.52;99787.78;5078226;28;20821;-62
2021/11/03 05:29:41;;;;;;;16.83;14.50;;;;;;;8.63;77.20;99786.91;5078452;28;20165;-62
2021/11/03 05:32:07;;;;;;;15.33;13.70;;;;;;;8.76;76.55;99786.91;5078136;28;20561;-62
2021/11/03 05:34:32;;;;;;;18.10;13.60;;;;;;;8.69;76.48;99785.19;5060743;28;20207;-61
2021/11/03 05:36:58;;;;;;;19.63;14.37;;;;;;;8.61;77.80;99786.06;5078354;28;20444;-62
2021/11/03 05:39:23;;;;;;;17.50;14.53;;;;;;;8.83;76.15;99782.59;5060689;28;20217;-61
2021/11/03 05:41:48;;;;;;;18.80;14.20;;;;;;;8.74;76.79;99788.66;5077941;28;20538;-61
2021/11/03 05:44:17;;;;;;;16.50;13.70;;;;;;;8.65;77.20;99782.59;5078465;28;20446;-61
2021/11/03 05:46:51;;;;;;;15.63;13.93;;;;;;;8.68;77.29;99793.84;5077990;28;20179;-61
2021/11/03 05:49:19;;;;;;;17.43;13.97;;;;;;;8.41;77.77;99790.25;5078022;28;20413;-61
2021/11/03 05:51:46;;;;;;;19.00;16.43;;;;;;;8.59;77.28;99788.63;5088410;28;20468;-62
2021/11/03 05:54:11;;;;;;;19.73;15.90;;;;;;;8.26;77.96;99790.22;5099585;28;20425;-63
2021/11/03 05:56:37;;;;;;;23.63;15.83;;;;;;;8.34;77.65;99787.66;5101918;28;20433;-63
2021/11/03 05:59:04;;;;;;;18.70;15.40;;;;;;;8.11;78.80;99790.19;5101634;28;20164;-63
2021/11/03 06:01:30;;;;;;;18.63;15.43;;;;;;;8.33;78.21;99802.34;5100769;28;20440;-62
2021/11/03 06:03:55;;;;;;;20.37;15.63;;;;;;;8.23;78.79;99806.66;5102890;28;20422;-62
2021/11/03 06:06:21;;;;;;;20.00;16.33;;;;;;;8.52;77.50;99805.06;5102745;28;20219;-62
2021/11/03 06:08:48;;;;;;;17.20;15.10;;;;;;;8.33;78.05;99807.56;5102617;28;20267;-62
2021/11/03 06:11:15;;;;;;;17.47;15.60;;;;;;;8.01;79.33;99815.19;5101586;28;20798;-61
2021/11/03 06:13:41;;;;;;;18.67;15.20;;;;;;;8.23;78.96;99816.19;5102023;28;20418;-62
2021/11/03 06:16:07;;;;;;;23.07;16.17;;;;;;;7.92;79.82;99837.66;5102105;28;20389;-62
2021/11/03 06:18:32;;;;;;;19.20;15.67;;;;;;;8.24;79.05;99825.69;5102383;28;20844;-61
2021/11/03 06:20:57;;;;;;;23.13;16.17;;;;;;;7.94;79.06;99829.88;5101879;28;20172;-61
2021/11/03 06:23:23;;;;;;;17.23;15.10;;;;;;;8.09;79.13;99837.75;5102110;28;20545;-61
2021/11/03 06:25:48;;;;;;;20.57;15.90;;;;;;;7.57;80.32;99835.69;5102134;28;20220;-61
2021/11/03 06:28:14;;;;;;;21.27;14.97;;;;;;;7.95;78.85;99844.59;5101664;28;20195;-61
2021/11/03 06:30:39;;;;;;;19.67;15.73;;;;;;;7.58;79.56;99852.16;5101497;28;20608;-62
2021/11/03 06:33:05;;;;;;;21.03;15.50;;;;;;;7.91;79.27;99855.81;5102219;28;20183;-61
2021/11/03 06:35:33;;;;;;;20.87;16.73;;;;;;;7.89;79.18;99855.81;5101603;28;20207;-61
2021/11/03 06:37:58;;;;;;;18.33;15.00;;;;;;;7.85;78.81;99850.59;5101687;28;20461;-62
2021/11/03 06:40:25;;;;;;;21.97;16.00;;;;;;;7.61;80.25;99854.75;5102009;28;20711;-61
2021/11/03 06:42:51;;;;;;;21.53;17.10;;;;;;;7.64;79.89;99862.53;5101382;28;20258;-61
2021/11/03 06:45:18;;;;;;;20.40;16.60;;;;;;;7.72;80.07;99873.00;5101485;28;20938;-61
2021/11/03 06:47:44;;;;;;;23.70;17.50;;;;;;;7.95;77.72;99877.47;5101817;28;20795;-63
2021/11/03 06:50:13;;;;;;;22.30;17.80;;;;;;;7.98;78.15;99873.16;5098501;28;20499;-62
2021/11/03 06:52:39;;;;;;;24.90;17.90;;;;;;;8.09;77.37;99868.91;5080779;28;20482;-62
2021/11/03 06:55:05;;;;;;;24.57;18.13;;;;;;;8.39;76.74;99869.06;5081281;28;20386;-62
2021/11/03 06:57:30;;;;;;;27.70;17.37;;;;;;;8.48;75.77;99863.06;5080674;28;20816;-62
2021/11/03 06:59:55;;;;;;;22.03;16.83;;;;;;;8.33;75.93;99864.69;5080966;28;20173;-62
2021/11/03 07:02:20;;;;;;;24.40;18.17;;;;;;;8.24;76.10;99856.84;5081079;28;20206;-61
2021/11/03 07:04:46;;;;;;;22.07;17.10;;;;;;;8.55;76.04;99859.63;5080728;28;20522;-64
2021/11/03 07:07:11;;;;;;;34.70;18.27;;;;;;;8.69;75.38;99850.16;5080713;28;20188;-62
2021/11/03 07:09:37;;;;;;;24.70;16.77;;;;;;;8.07;76.85;99862.81;5081156;28;20169;-62
2021/11/03 07:12:03;;;;;;;25.57;17.27;;;;;;;8.25;76.26;99868.97;5080257;28;20185;-62
2021/11/03 07:14:28;;;;;;;23.57;18.13;;;;;;;8.47;75.08;99866.50;5080464;28;20256;-62
2021/11/03 07:16:53;;;;;;;21.97;17.30;;;;;;;8.71;75.39;99870.94;5063490;28;20176;-62
2021/11/03 07:19:19;;;;;;;27.63;18.03;;;;;;;8.57;75.10;99869.16;5080470;28;20268;-62
2021/11/03 07:21:44;;;;;;;21.27;17.60;;;;;;;8.81;74.16;99869.22;5063014;28;20184;-61
2021/11/03 07:24:12;;;;;;;19.57;15.97;;;;;;;8.31;75.43;99871.63;5080941;28;20226;-61
2021/11/03 07:26:38;;;;;;;22.30;16.93;;;;;;;9.02;74.30;99879.66;5080202;28;20169;-61
2021/11/03 07:29:04;;;;;;;22.90;17.77;;;;;;;8.92;73.56;99886.59;5080302;28;20442;-62
2021/11/03 07:31:29;;;;;;;22.53;18.20;;;;;;;8.96;73.66;99882.28;5080663;28;20165;-62
2021/11/03 07:33:54;;;;;;;24.00;18.33;;;;;;;9.13;73.20;99886.63;5080152;28;20419;-62
2021/11/03 07:36:20;;;;;;;25.00;17.03;;;;;;;9.50;73.04;99884.94;5080222;28;20180;-62
2021/11/03 07:38:47;;;;;;;26.00;16.80;;;;;;;10.66;68.77;99878.63;5080543;28;20172;-61
2021/11/03 07:41:12;;;;;;;19.23;15.53;;;;;;;11.07;66.08;99883.63;5079861;28;20230;-62
2021/11/03 07:43:38;;;;;;;23.73;15.53;;;;;;;11.17;64.16;99880.97;5079976;28;20423;-61
2021/11/03 07:46:04;;;;;;;22.40;16.33;;;;;;;12.61;61.51;99873.53;5084700;28;20461;-62
2021/11/03 07:48:29;;;;;;;21.40;14.40;;;;;;;13.14;58.53;99868.44;5091170;28;20412;-62
2021/11/03 07:51:01;;;;;;;16.50;14.80;;;;;;;13.84;56.60;99869.06;5086257;28;20239;-62
2021/11/03 07:53:27;;;;;;;16.73;15.00;;;;;;;13.16;57.04;99864.94;5079973;28;20176;-61
2021/11/03 07:55:58;;;;;;;17.47;15.77;;;;;;;14.44;53.57;99866.19;5099093;28;20428;-63
2021/11/03 07:58:24;;;;;;;17.60;15.77;;;;;;;15.19;51.91;99870.72;5099931;28;20505;-62
2021/11/03 08:00:50;;;;;;;17.53;15.23;;;;;;;14.67;52.47;99869.25;5100120;28;20414;-63
2021/11/03 08:03:16;;;;;;;19.00;15.87;;;;;;;14.59;52.72;99866.78;5090149;28;20502;-62
2021/11/03 08:05:41;;;;;;;23.73;16.50;;;;;;;15.46;50.43;99870.94;5079539;28;20208;-62
2021/11/03 08:08:11;;;;;;;20.80;16.63;;;;;;;13.74;54.75;99882.34;5079908;28;20247;-62
2021/11/03 08:10:37;;;;;;;16.57;14.87;;;;;;;15.14;51.40;99888.31;5079359;28;20177;-62
2021/11/03 08:13:04;;;;;;;20.87;15.90;;;;;;;14.21;53.52;99899.88;5079423;28;20792;-62
2021/11/03 08:15:29;;;;;;;20.10;14.83;;;;;;;14.33;52.29;99902.25;5079770;28;20173;-62
2021/11/03 08:17:56;;;;;;;8.33;7.40;;;;;;;18.12;54.48;99881.59;5079170;28;20430;-75
2021/11/03 08:20:26;;;;;;;12.17;10.47;;;;;;;19.75;45.24;99871.78;5089015;28;20259;-70
2021/11/03 08:23:25;;;;;;;15.00;13.70;;;;;;;16.91;45.26;99890.72;5099499;28;20501;-64
2021/11/03 08:25:51;;;;;;;16.20;14.60;;;;;;;14.01;53.00;99900.22;5081683;28;20454;-64
2021/11/03 08:28:16;;;;;;;17.10;15.40;;;;;;;12.33;57.82;99917.41;5098617;28;20659;-65
2021/11/03 08:30:46;;;;;;;18.40;16.63;;;;;;;11.87;59.92;99910.88;5099588;28;20688;-66
2021/11/03 08:33:16;;;;;;;21.47;19.17;;;;;;;10.81;64.50;99914.19;5081649;28;20168;-69
2021/11/03 08:35:45;;;;;;;23.27;19.67;;;;;;;10.95;64.58;99909.78;5081390;28;20684;-65
2021/11/03 08:38:12;;;;;;;21.97;18.50;;;;;;;10.85;65.09;99915.91;5081702;28;20446;-66
2021/11/03 08:40:38;;;;;;;25.40;19.97;;;;;;;10.08;67.16;99925.69;5081516;28;20513;-65
2021/11/03 08:43:06;;;;;;;29.00;21.00;;;;;;;10.31;67.28;99932.59;5099642;28;20438;-65
2021/11/03 08:45:32;;;;;;;30.10;21.53;;;;;;;10.81;65.77;99932.44;5081226;28;20216;-66
2021/11/03 08:47:58;;;;;;;28.70;22.10;;;;;;;10.73;65.91;99929.88;5081593;28;20400;-65
2021/11/03 08:50:28;;;;;;;29.30;22.00;;;;;;;10.49;66.66;99933.44;5099002;28;20814;-65
2021/11/03 08:52:53;;;;;;;27.43;21.53;;;;;;;9.78;69.91;99937.88;5080648;28;20206;-66
2021/11/03 08:55:19;;;;;;;32.93;24.80;;;;;;;9.53;70.23;99936.97;5082067;28;20427;-65
2021/11/03 08:57:45;;;;;;;36.50;24.80;;;;;;;8.65;73.79;99952.34;5078532;28;20172;-64
2021/11/03 09:00:16;;;;;;;34.00;25.80;;;;;;;9.18;72.81;99947.34;5077573;28;20188;-65
2021/11/03 09:02:42;;;;;;;34.30;24.30;;;;;;;9.53;71.28;99936.97;5058937;28;20181;-71
2021/11/03 09:05:07;;;;;;;36.87;25.73;;;;;;;9.45;71.33;99938.72;5059328;28;20471;-71
2021/11/03 09:07:33;;;;;;;35.80;25.00;;;;;;;9.26;72.23;99943.88;5059280;28;20219;-64
2021/11/03 09:10:04;;;;;;;35.17;25.97;;;;;;;9.36;72.83;99947.38;5059544;28;20278;-64
2021/11/03 09:12:29;;;;;;;36.03;25.83;;;;;;;9.80;70.70;99942.22;5058288;28;20527;-64
2021/11/03 09:14:55;;;;;;;36.17;25.67;;;;;;;9.06;73.57;99937.75;5058195;28;20424;-64
2021/11/03 09:17:21;;;;;;;36.57;24.23;;;;;;;9.71;71.72;99936.09;5058581;28;20176;-65
2021/11/03 09:19:46;;;;;;;34.43;24.33;;;;;;;9.59;71.33;99931.78;5058160;28;20178;-63
2021/11/03 09:22:12;;;;;;;31.90;23.13;;;;;;;9.36;72.06;99929.16;5057990;28;20391;-64
2021/11/03 09:24:37;;;;;;;39.87;26.90;;;;;;;9.66;71.16;99931.78;5058336;28;20284;-64
2021/11/03 09:27:08;;;;;;;31.67;23.40;;;;;;;8.79;74.14;99946.34;5057766;28;20193;-64
2021/11/03 09:29:34;;;;;;;32.70;23.03;;;;;;;9.81;71.12;99931.78;5058264;28;20496;-64
2021/11/03 09:31:59;;;;;;;31.60;23.67;;;;;;;9.64;71.82;99934.38;5058315;28;20390;-64
2021/11/03 09:34:25;;;;;;;33.43;24.73;;;;;;;9.65;71.54;99935.25;5057893;28;20420;-63
2021/11/03 09:36:50;;;;;;;31.60;22.63;;;;;;;9.50;72.04;99923.09;5058063;28;20169;-64
2021/11/03 09:39:15;;;;;;;30.93;22.43;;;;;;;9.64;71.05;99923.97;5058151;28;20454;-64
2021/11/03 09:41:49;;;;;;;30.83;23.13;;;;;;;10.08;69.54;99922.19;5057797;28;20444;-65
2021/11/03 09:44:23;;;;;;;29.73;22.27;;;;;;;9.70;70.82;99923.09;5057735;28;20165;-65
2021/11/03 09:46:55;;;;;;;28.60;21.83;;;;;;;10.16;69.50;99920.47;5057821;28;20435;-65
2021/11/03 09:49:36;;;;;;;29.47;22.13;;;;;;;10.09;69.37;99919.63;5057921;28;20736;-66
2021/11/03 09:52:34;;;;;;;32.57;23.77;;;;;;;9.93;70.08;99918.75;5057575;28;20479;-66
2021/11/03 09:55:19;;;;;;;34.13;23.20;;;;;;;9.79;70.51;99920.50;5040566;28;20514;-65
2021/11/03 09:58:06;;;;;;;32.27;22.43;;;;;;;9.88;70.19;99923.09;5057942;28;20408;-65
2021/11/03 10:00:37;;;;;;;31.43;22.10;;;;;;;10.00;69.44;99926.56;5057102;28;20395;-65
2021/11/03 10:03:34;;;;;;;33.17;22.17;;;;;;;10.08;69.56;99927.41;5058199;28;20426;-65
2021/11/03 10:06:14;;;;;;;30.07;21.20;;;;;;;10.29;68.19;99934.31;5057260;28;20453;-65
2021/11/03 10:08:43;;;;;;;37.83;24.07;;;;;;;10.31;68.58;99929.09;5040306;28;20431;-65
2021/11/03 10:11:34;;;;;;;30.00;22.17;;;;;;;9.07;72.38;99931.69;5057537;28;20498;-65
2021/11/03 10:14:00;;;;;;;30.23;22.17;;;;;;;9.76;70.56;99930.91;5057458;28;20774;-63
2021/11/03 10:16:30;;;;;;;32.67;21.87;;;;;;;10.13;69.16;99932.63;5057449;28;20420;-64
2021/11/03 10:19:13;;;;;;;31.27;23.00;;;;;;;10.27;69.18;99931.72;5057573;28;20418;-64
2021/11/03 10:21:45;;;;;;;29.80;22.20;;;;;;;10.24;68.78;99930.84;5057425;28;20415;-64
2021/11/03 10:24:13;;;;;;;27.90;20.63;;;;;;;10.07;69.06;99926.56;5059979;28;20445;-64
2021/11/03 10:26:59;;;;;;;30.43;21.20;;;;;;;10.00;69.42;99930.03;5077218;28;20499;-66
2021/11/03 10:29:49;;;;;;;29.73;21.40;;;;;;;9.70;70.43;99928.31;5077641;28;20400;-63
2021/11/03 10:32:26;;;;;;;30.53;22.07;;;;;;;9.84;69.92;99931.78;5052749;28;20510;-65
2021/11/03 10:35:13;;;;;;;29.67;22.07;;;;;;;10.32;68.29;99923.88;5077031;28;20439;-64
2021/11/03 10:37:43;;;;;;;32.90;21.27;;;;;;;9.74;70.53;99936.13;5077566;28;20777;-63
2021/11/03 10:40:32;;;;;;;29.20;21.30;;;;;;;10.49;68.03;99941.28;5077529;28;20525;-64
2021/11/03 10:43:02;;;;;;;25.57;20.23;;;;;;;11.02;66.05;99934.94;5060271;28;20672;-64
2021/11/03 10:45:35;;;;;;;27.30;20.77;;;;;;;11.41;64.42;99929.53;5060098;28;20712;-64
2021/11/03 10:48:07;;;;;;;27.53;19.03;;;;;;;11.66;63.82;99938.00;5059930;28;20936;-64
2021/11/03 10:51:01;;;;;;;26.27;19.60;;;;;;;12.94;60.04;99918.41;5077551;28;20554;-64
2021/11/03 10:53:44;;;;;;;25.60;18.50;;;;;;;11.71;62.58;99928.41;5080820;28;20482;-65
2021/11/03 10:56:33;;;;;;;22.27;18.30;;;;;;;13.44;57.51;99918.59;5080950;28;20459;-65
2021/11/03 10:59:26;;;;;;;23.73;18.33;;;;;;;13.50;56.16;99919.41;5080269;28;20447;-65
2021/11/03 11:01:53;;;;;;;22.00;17.63;;;;;;;13.24;57.59;99920.63;5080525;28;20435;-65
2021/11/03 11:04:28;;;;;;;21.50;17.70;;;;;;;12.59;60.28;99926.72;5080474;28;20503;-67
2021/11/03 11:07:07;;;;;;;20.60;18.00;;;;;;;12.58;59.65;99923.25;5063262;28;20430;-64
2021/11/03 11:09:45;;;;;;;22.10;17.03;;;;;;;12.05;60.51;99928.13;5080834;28;20426;-64
2021/11/03 11:12:33;;;;;;;18.83;15.70;;;;;;;11.68;61.45;99928.44;5063083;28;20472;-67
2021/11/03 11:15:13;;;;;;;20.37;16.83;;;;;;;12.71;58.79;99918.72;5080411;28;20777;-64
2021/11/03 11:17:48;;;;;;;19.40;16.80;;;;;;;12.20;60.76;99918.44;5080463;28;20481;-65
2021/11/03 11:20:26;;;;;;;18.27;15.37;;;;;;;11.55;61.65;99922.44;5063501;28;20411;-64
2021/11/03 11:23:19;;;;;;;17.40;15.60;;;;;;;13.16;57.80;99912.03;5062714;28;20422;-64
2021/11/03 11:26:09;;;;;;;19.17;15.37;;;;;;;12.55;58.65;99917.19;5070227;28;20600;-65
2021/11/03 11:28:56;;;;;;;21.97;16.87;;;;;;;12.24;60.36;99918.38;5062860;28;20694;-64
2021/11/03 11:31:36;;;;;;;19.03;16.23;;;;;;;12.48;59.50;99908.53;5080160;28;20450;-65